createdAt,value
2022-08-30T00:00:45.589Z,100.00
2022-08-30T00:03:41.923Z,100.00
2022-08-30T00:06:30.765Z,100.00
2022-08-30T00:09:17.820Z,100.00
2022-08-30T00:12:04.869Z,100.00
2022-08-30T00:14:51.865Z,100.00
2022-08-30T00:17:38.969Z,100.00
2022-08-30T00:20:29.124Z,100.00
2022-08-30T00:23:18.466Z,100.00
2022-08-30T00:26:06.804Z,100.00
2022-08-30T00:28:53.744Z,100.00
2022-08-30T00:31:40.769Z,100.00
2022-08-30T00:34:27.954Z,100.00
2022-08-30T00:37:15.096Z,100.00
2022-08-30T00:40:02.556Z,100.00
2022-08-30T00:42:50.668Z,100.00
2022-08-30T00:45:39.288Z,100.00
2022-08-30T00:48:26.401Z,100.00
2022-08-30T00:51:15.544Z,100.00
2022-08-30T00:54:04.511Z,100.00
2022-08-30T00:56:52.886Z,100.00
2022-08-30T00:59:41.464Z,100.00
2022-08-30T01:02:30.937Z,100.00
2022-08-30T01:05:19.261Z,100.00
2022-08-30T01:08:06.942Z,100.00
2022-08-30T01:10:55.787Z,100.00
2022-08-30T01:13:44.264Z,100.00
2022-08-30T01:16:33.778Z,100.00
2022-08-30T01:19:46.863Z,100.00
2022-08-30T01:23:03.106Z,100.00
2022-08-30T01:25:52.685Z,100.00
2022-08-30T01:28:40.724Z,100.00
2022-08-30T01:31:27.963Z,100.00
2022-08-30T01:34:15.314Z,100.00
2022-08-30T01:37:02.266Z,100.00
2022-08-30T01:39:49.373Z,100.00
2022-08-30T01:42:36.457Z,100.00
2022-08-30T01:45:23.537Z,100.00
2022-08-30T01:48:12.922Z,100.00
2022-08-30T01:51:00.426Z,100.00
2022-08-30T01:53:47.615Z,100.00
2022-08-30T01:56:34.632Z,100.00
2022-08-30T01:59:21.716Z,100.00
2022-08-30T02:02:09.274Z,100.00
2022-08-30T02:04:57.362Z,100.00
2022-08-30T02:07:45.513Z,100.00
2022-08-30T02:10:32.596Z,100.00
2022-08-30T02:13:19.558Z,100.00
2022-08-30T02:16:09.301Z,100.00
2022-08-30T02:18:59.334Z,100.00
2022-08-30T02:21:46.309Z,100.00
2022-08-30T02:24:33.814Z,100.00
2022-08-30T02:27:23.724Z,100.00
2022-08-30T02:30:11.416Z,100.00
2022-08-30T02:32:58.384Z,100.00
2022-08-30T02:35:45.389Z,100.00
2022-08-30T02:38:32.887Z,100.00
2022-08-30T02:41:21.400Z,100.00
2022-08-30T02:44:08.922Z,100.00
2022-08-30T02:46:55.856Z,100.00
2022-08-30T02:49:42.880Z,100.00
2022-08-30T02:52:29.856Z,100.00
2022-08-30T02:55:17.739Z,100.00
2022-08-30T02:58:04.727Z,100.00
2022-08-30T03:00:51.785Z,100.00
2022-08-30T03:03:40.558Z,100.00
2022-08-30T03:06:27.680Z,100.00
2022-08-30T03:09:14.703Z,100.00
2022-08-30T03:12:02.080Z,100.00
2022-08-30T03:14:49.133Z,100.00
2022-08-30T03:17:36.101Z,100.00
2022-08-30T03:20:24.340Z,100.00
2022-08-30T03:23:11.319Z,100.00
2022-08-30T03:26:12.728Z,100.00
2022-08-30T03:28:59.691Z,100.00
2022-08-30T03:31:53.258Z,100.00
2022-08-30T03:34:40.793Z,100.00
2022-08-30T03:37:27.894Z,100.00
2022-08-30T03:40:17.286Z,100.00
2022-08-30T03:43:05.953Z,100.00
2022-08-30T03:45:53.211Z,100.00
2022-08-30T03:48:40.437Z,100.00
2022-08-30T03:51:27.496Z,100.00
2022-08-30T03:54:15.085Z,100.00
2022-08-30T03:57:02.087Z,100.00
2022-08-30T03:59:49.442Z,100.00
2022-08-30T04:02:36.547Z,100.00
2022-08-30T04:05:23.676Z,100.00
2022-08-30T04:08:11.189Z,100.00
2022-08-30T04:10:58.480Z,100.00
2022-08-30T04:13:45.548Z,100.00
2022-08-30T04:16:32.629Z,100.00
2022-08-30T04:19:19.710Z,100.00
2022-08-30T04:22:06.677Z,100.00
2022-08-30T04:24:53.795Z,100.00
2022-08-30T04:27:40.820Z,100.00
2022-08-30T04:30:28.417Z,100.00
2022-08-30T04:33:16.917Z,100.00
2022-08-30T04:36:06.613Z,100.00
2022-08-30T04:38:53.668Z,100.00
2022-08-30T04:41:40.982Z,100.00
2022-08-30T04:44:28.016Z,100.00
2022-08-30T04:47:14.996Z,100.00
2022-08-30T04:50:03.715Z,100.00
2022-08-30T04:52:50.696Z,100.00
2022-08-30T04:55:40.176Z,100.00
2022-08-30T04:58:27.577Z,100.00
2022-08-30T05:01:21.211Z,100.00
2022-08-30T05:04:11.175Z,100.00
2022-08-30T05:06:58.164Z,100.00
2022-08-30T05:09:45.201Z,100.00
2022-08-30T05:12:32.260Z,100.00
2022-08-30T05:15:20.542Z,100.00
2022-08-30T05:18:08.795Z,100.00
2022-08-30T05:21:10.397Z,100.00
2022-08-30T05:24:00.221Z,100.00
2022-08-30T05:29:35.164Z,100.00
2022-08-30T05:32:22.238Z,100.00
2022-08-30T05:35:12.614Z,100.00
2022-08-30T05:37:59.545Z,100.00
2022-08-30T05:40:46.615Z,100.00
2022-08-30T05:43:34.164Z,100.00
2022-08-30T05:46:22.135Z,100.00
2022-08-30T05:49:10.782Z,100.00
2022-08-30T05:51:57.733Z,100.00
2022-08-30T05:54:45.947Z,100.00
2022-08-30T05:57:34.237Z,100.00
2022-08-30T06:00:23.715Z,100.00
2022-08-30T06:03:12.898Z,100.00
2022-08-30T06:06:01.661Z,100.00
2022-08-30T06:08:49.996Z,100.00
2022-08-30T06:11:37.101Z,100.00
2022-08-30T06:14:24.826Z,100.00
2022-08-30T06:17:11.900Z,99.43
2022-08-30T06:19:58.944Z,100.00
2022-08-30T06:22:46.854Z,100.00
2022-08-30T06:25:41.987Z,96.19
2022-08-30T06:28:29.285Z,89.72
2022-08-30T06:31:18.979Z,100.00
2022-08-30T06:34:06.476Z,100.00
2022-08-30T06:36:53.416Z,97.88
2022-08-30T06:39:40.397Z,89.69
2022-08-30T06:42:32.154Z,93.91
2022-08-30T06:45:20.583Z,86.22
2022-08-30T06:48:07.501Z,96.51
2022-08-30T06:50:55.513Z,100.00
2022-08-30T06:53:42.621Z,100.00
2022-08-30T06:56:31.184Z,99.61
2022-08-30T06:59:18.310Z,94.81
2022-08-30T07:02:06.466Z,100.00
2022-08-30T07:04:53.781Z,100.00
2022-08-30T07:07:40.703Z,100.00
2022-08-30T07:10:27.824Z,84.49
2022-08-30T07:13:15.460Z,92.34
2022-08-30T07:16:10.051Z,89.26
2022-08-30T07:18:58.830Z,90.64
2022-08-30T07:21:45.835Z,77.85
2022-08-30T07:24:32.804Z,92.69
2022-08-30T07:27:19.737Z,97.32
2022-08-30T07:30:08.115Z,86.66
2022-08-30T07:32:56.526Z,92.70
2022-08-30T07:35:43.908Z,81.12
2022-08-30T07:38:31.385Z,84.07
2022-08-30T07:41:28.757Z,84.17
2022-08-30T07:44:15.769Z,89.99
2022-08-30T07:47:03.078Z,90.64
2022-08-30T07:49:50.153Z,91.43
2022-08-30T07:55:29.368Z,70.12
2022-08-30T07:58:16.546Z,64.39
2022-08-30T08:01:06.441Z,57.92
2022-08-30T08:03:53.529Z,61.43
2022-08-30T08:06:40.716Z,60.91
2022-08-30T08:09:27.899Z,62.15
2022-08-30T08:12:14.978Z,53.24
2022-08-30T08:15:05.432Z,59.52
2022-08-30T08:17:56.088Z,61.63
2022-08-30T08:20:43.054Z,61.85
2022-08-30T08:23:30.260Z,59.35
2022-08-30T08:26:17.921Z,53.23
2022-08-30T08:29:06.979Z,58.30
2022-08-30T08:31:54.904Z,53.72
2022-08-30T08:34:42.020Z,52.56
2022-08-30T08:37:29.035Z,57.85
2022-08-30T08:40:19.617Z,56.56
2022-08-30T08:43:20.209Z,52.58
2022-08-30T08:46:36.388Z,53.34
2022-08-30T08:49:23.643Z,50.14
2022-08-30T08:52:38.553Z,48.99
2022-08-30T08:55:26.289Z,51.78
2022-08-30T08:58:31.248Z,52.31
2022-08-30T09:01:20.626Z,51.64
2022-08-30T09:04:15.259Z,51.53
2022-08-30T09:07:17.475Z,47.07
2022-08-30T09:10:05.717Z,47.96
2022-08-30T09:12:59.347Z,50.57
2022-08-30T09:15:49.944Z,46.84
2022-08-30T09:18:45.527Z,49.89
2022-08-30T09:21:33.500Z,52.38
2022-08-30T09:24:20.684Z,50.84
2022-08-30T09:27:35.644Z,52.83
2022-08-30T09:30:28.659Z,50.30
2022-08-30T09:33:20.411Z,50.69
2022-08-30T09:36:26.874Z,50.56
2022-08-30T09:39:28.381Z,49.42
2022-08-30T09:42:25.477Z,52.33
2022-08-30T09:45:20.574Z,56.98
2022-08-30T09:48:27.390Z,54.60
2022-08-30T09:51:23.213Z,48.98
2022-08-30T09:54:25.515Z,56.45
2022-08-30T09:57:39.096Z,54.92
2022-08-30T10:00:29.193Z,53.89
2022-08-30T10:03:40.881Z,55.04
2022-08-30T10:06:37.569Z,51.92
2022-08-30T10:09:33.239Z,52.25
2022-08-30T10:12:29.495Z,51.17
2022-08-30T10:15:25.628Z,49.52
2022-08-30T10:18:20.817Z,45.67
2022-08-30T10:21:07.720Z,48.63
2022-08-30T10:24:11.549Z,42.35
2022-08-30T10:27:11.141Z,44.40
2022-08-30T10:30:06.121Z,43.06
2022-08-30T10:33:05.197Z,43.71
2022-08-30T10:35:57.386Z,42.77
2022-08-30T10:38:52.325Z,42.80
2022-08-30T10:41:49.511Z,42.75
2022-08-30T10:44:41.671Z,41.76
2022-08-30T10:47:44.904Z,39.41
2022-08-30T10:50:45.762Z,38.13
2022-08-30T10:53:40.349Z,40.43
2022-08-30T10:56:29.675Z,39.97
2022-08-30T10:59:18.521Z,40.83
2022-08-30T11:02:27.598Z,37.32
2022-08-30T11:05:15.212Z,37.68
2022-08-30T11:08:22.160Z,39.22
2022-08-30T11:11:22.115Z,38.25
2022-08-30T11:14:14.161Z,34.79
2022-08-30T11:17:02.156Z,41.63
2022-08-30T11:19:49.692Z,38.89
2022-08-30T11:22:39.399Z,40.26
2022-08-30T11:26:03.008Z,37.90
2022-08-30T11:28:50.122Z,35.64
2022-08-30T11:31:40.653Z,37.46
2022-08-30T11:34:49.378Z,37.45
2022-08-30T11:37:43.260Z,37.12
2022-08-30T11:40:56.211Z,35.78
2022-08-30T11:43:43.671Z,38.05
2022-08-30T11:46:30.611Z,38.08
2022-08-30T11:49:20.592Z,33.95
2022-08-30T11:52:31.701Z,34.09
2022-08-30T11:55:37.061Z,37.86
2022-08-30T11:58:49.493Z,35.91
2022-08-30T12:01:50.603Z,35.10
2022-08-30T12:04:47.308Z,35.48
2022-08-30T12:08:00.785Z,38.93
2022-08-30T12:10:56.230Z,38.19
2022-08-30T12:13:43.366Z,38.58
2022-08-30T12:17:03.721Z,39.58
2022-08-30T12:19:51.913Z,39.46
2022-08-30T12:22:40.615Z,41.16
2022-08-30T12:25:32.335Z,43.52
2022-08-30T12:28:26.064Z,41.09
2022-08-30T12:31:19.123Z,41.05
2022-08-30T12:34:06.380Z,36.79
2022-08-30T12:37:00.702Z,35.58
2022-08-30T12:39:53.410Z,35.79
2022-08-30T12:42:49.532Z,33.40
2022-08-30T12:45:41.790Z,37.53
2022-08-30T12:48:33.977Z,38.15
2022-08-30T12:51:47.347Z,38.60
2022-08-30T12:54:39.876Z,38.20
2022-08-30T12:58:00.750Z,41.01
2022-08-30T13:00:48.303Z,42.27
2022-08-30T13:03:37.030Z,41.01
2022-08-30T13:06:48.125Z,38.90
2022-08-30T13:09:41.506Z,37.25
2022-08-30T13:12:30.292Z,37.98
2022-08-30T13:15:29.394Z,34.78
2022-08-30T13:18:21.672Z,34.54
2022-08-30T13:21:29.946Z,38.80
2022-08-30T13:24:16.911Z,36.22
2022-08-30T13:27:11.360Z,35.80
2022-08-30T13:30:06.309Z,37.57
2022-08-30T13:32:53.959Z,36.47
2022-08-30T13:35:40.945Z,38.16
2022-08-30T13:38:27.926Z,31.63
2022-08-30T13:41:15.786Z,34.29
2022-08-30T13:44:13.486Z,37.74
2022-08-30T13:50:10.287Z,38.86
2022-08-30T13:52:57.454Z,37.52
2022-08-30T13:55:44.887Z,38.14
2022-08-30T13:58:32.317Z,37.11
2022-08-30T14:01:19.773Z,37.40
2022-08-30T14:04:15.668Z,32.93
2022-08-30T14:07:20.610Z,33.66
2022-08-30T14:13:15.526Z,35.43
2022-08-30T14:19:15.966Z,36.07
2022-08-30T14:22:03.239Z,33.63
2022-08-30T14:24:50.311Z,33.59
2022-08-30T14:27:37.318Z,34.64
2022-08-30T14:30:24.987Z,37.45
2022-08-30T14:33:13.411Z,35.71
2022-08-30T14:36:00.411Z,37.21
2022-08-30T14:38:48.493Z,38.43
2022-08-30T14:41:43.497Z,35.49
2022-08-30T14:44:45.693Z,38.00
2022-08-30T14:47:38.351Z,37.17
2022-08-30T14:50:25.344Z,38.27
2022-08-30T14:53:14.979Z,35.85
2022-08-30T14:56:07.852Z,35.41
2022-08-30T14:59:00.523Z,34.94
2022-08-30T15:01:47.782Z,33.79
2022-08-30T15:04:34.918Z,35.68
2022-08-30T15:07:22.698Z,37.05
2022-08-30T15:10:10.460Z,36.13
2022-08-30T15:12:58.028Z,35.32
2022-08-30T15:15:45.044Z,37.07
2022-08-30T15:18:31.960Z,36.52
2022-08-30T15:21:40.617Z,35.80
2022-08-30T15:24:30.140Z,36.40
2022-08-30T15:27:17.400Z,37.16
2022-08-30T15:30:06.027Z,38.13
2022-08-30T15:32:53.148Z,37.40
2022-08-30T15:35:40.124Z,37.02
2022-08-30T15:38:27.104Z,38.36
2022-08-30T15:41:15.512Z,38.17
2022-08-30T15:44:03.725Z,38.35
2022-08-30T15:46:50.747Z,38.84
2022-08-30T15:49:38.011Z,40.46
2022-08-30T15:52:25.792Z,39.94
2022-08-30T15:55:14.101Z,41.18
2022-08-30T15:58:01.164Z,42.65
2022-08-30T16:00:49.777Z,42.22
2022-08-30T16:03:40.527Z,42.18
2022-08-30T16:06:34.860Z,41.61
2022-08-30T16:09:21.831Z,43.41
2022-08-30T16:12:09.893Z,44.03
2022-08-30T16:14:56.988Z,43.87
2022-08-30T16:17:43.912Z,44.38
2022-08-30T16:20:30.945Z,45.33
2022-08-30T16:23:18.074Z,45.06
2022-08-30T16:26:07.984Z,44.37
2022-08-30T16:28:57.317Z,45.21
2022-08-30T16:31:44.892Z,44.27
2022-08-30T16:34:31.896Z,46.47
2022-08-30T16:37:20.477Z,48.22
2022-08-30T16:40:08.445Z,45.22
2022-08-30T16:42:55.564Z,46.78
2022-08-30T16:45:43.353Z,50.46
2022-08-30T16:48:30.461Z,50.71
2022-08-30T16:51:24.646Z,50.64
2022-08-30T16:54:13.404Z,52.46
2022-08-30T16:57:00.693Z,51.33
2022-08-30T16:59:49.557Z,51.79
2022-08-30T17:02:39.755Z,54.26
2022-08-30T17:05:27.772Z,55.32
2022-08-30T17:08:14.772Z,55.88
2022-08-30T17:11:03.227Z,57.60
2022-08-30T17:13:50.882Z,55.83
2022-08-30T17:16:38.583Z,58.28
2022-08-30T17:19:29.468Z,58.40
2022-08-30T17:22:16.550Z,57.91
2022-08-30T17:25:04.404Z,59.33
2022-08-30T17:27:52.865Z,59.35
2022-08-30T17:30:40.352Z,60.47
2022-08-30T17:33:27.500Z,59.51
2022-08-30T17:36:14.585Z,59.64
2022-08-30T17:39:02.799Z,60.85
2022-08-30T17:41:57.761Z,60.69
2022-08-30T17:44:45.588Z,61.65
2022-08-30T17:47:32.530Z,62.64
2022-08-30T17:50:23.624Z,64.09
2022-08-30T17:53:15.009Z,64.35
2022-08-30T17:56:03.426Z,63.92
2022-08-30T17:58:50.686Z,64.36
2022-08-30T18:01:41.729Z,64.77
2022-08-30T18:04:29.489Z,67.55
2022-08-30T18:07:17.673Z,66.84
2022-08-30T18:10:10.282Z,68.76
2022-08-30T18:12:58.582Z,69.61
2022-08-30T18:15:45.607Z,71.67
2022-08-30T18:18:37.841Z,75.06
2022-08-30T18:21:25.504Z,77.87
2022-08-30T18:24:16.462Z,78.23
2022-08-30T18:27:04.475Z,79.60
2022-08-30T18:29:51.498Z,80.61
2022-08-30T18:32:38.556Z,80.70
2022-08-30T18:35:26.183Z,82.17
2022-08-30T18:38:13.452Z,79.92
2022-08-30T18:41:06.410Z,80.14
2022-08-30T18:47:03.657Z,85.73
2022-08-30T18:49:53.736Z,84.48
2022-08-30T18:52:40.681Z,85.88
2022-08-30T18:55:32.228Z,88.28
2022-08-30T18:58:20.637Z,91.86
2022-08-30T19:01:07.870Z,93.75
2022-08-30T19:03:59.911Z,92.74
2022-08-30T19:06:46.827Z,93.05
2022-08-30T19:09:34.516Z,98.36
2022-08-30T19:12:21.641Z,100.00
2022-08-30T19:15:11.715Z,100.00
2022-08-30T19:17:58.884Z,100.00
2022-08-30T19:20:47.368Z,100.00
2022-08-30T19:23:36.549Z,100.00
2022-08-30T19:26:23.572Z,100.00
2022-08-30T19:29:14.960Z,100.00
2022-08-30T19:32:02.404Z,100.00
2022-08-30T19:34:50.864Z,100.00
2022-08-30T19:37:38.946Z,100.00
2022-08-30T19:40:26.100Z,100.00
2022-08-30T19:43:13.440Z,100.00
2022-08-30T19:46:00.754Z,98.93
2022-08-30T19:48:47.713Z,95.18
2022-08-30T19:51:34.644Z,93.69
2022-08-30T19:54:22.546Z,100.00
2022-08-30T19:57:10.058Z,100.00
2022-08-30T19:59:57.959Z,100.00
2022-08-30T20:02:45.193Z,100.00
2022-08-30T20:05:37.800Z,100.00
2022-08-30T20:08:25.446Z,100.00
2022-08-30T20:11:15.565Z,100.00
2022-08-30T20:14:02.756Z,100.00
2022-08-30T20:16:51.448Z,100.00
2022-08-30T20:19:38.860Z,100.00
2022-08-30T20:22:26.806Z,100.00
2022-08-30T20:24:29.180Z,83.84
2022-08-30T20:25:18.467Z,100.00
2022-08-30T20:28:06.201Z,100.00
2022-08-30T20:30:54.453Z,100.00
2022-08-30T20:33:41.485Z,100.00
2022-08-30T20:36:29.153Z,100.00
2022-08-30T20:39:17.555Z,99.94
2022-08-30T20:42:05.124Z,100.00
2022-08-30T20:44:53.178Z,100.00
2022-08-30T20:47:41.273Z,100.00
2022-08-30T20:50:28.329Z,100.00
2022-08-30T20:53:16.263Z,100.00
2022-08-30T20:56:03.800Z,100.00
2022-08-30T20:58:50.819Z,100.00
2022-08-30T21:01:38.936Z,100.00
2022-08-30T21:04:28.412Z,100.00
2022-08-30T21:07:16.413Z,100.00
2022-08-30T21:10:04.149Z,99.16
2022-08-30T21:12:51.797Z,96.84
2022-08-30T21:15:38.908Z,97.46
2022-08-30T21:18:29.605Z,95.86
2022-08-30T21:21:25.493Z,93.40
2022-08-30T21:24:12.576Z,93.72
2022-08-30T21:26:59.731Z,92.32
2022-08-30T21:29:46.801Z,93.01
2022-08-30T21:32:33.816Z,92.71
2022-08-30T21:35:39.179Z,90.67
2022-08-30T21:38:26.494Z,95.62
2022-08-30T21:41:13.616Z,98.08
2022-08-30T21:44:03.298Z,95.45
2022-08-30T21:46:52.288Z,92.83
2022-08-30T21:49:39.709Z,89.38
2022-08-30T21:52:26.723Z,91.26
2022-08-30T21:55:13.766Z,93.28
2022-08-30T21:58:00.727Z,94.40
2022-08-30T22:00:48.706Z,92.55
2022-08-30T22:03:37.080Z,93.95
2022-08-30T22:06:25.244Z,98.98
2022-08-30T22:09:23.305Z,100.00
2022-08-30T22:12:10.455Z,93.83
2022-08-30T22:14:58.104Z,94.48
2022-08-30T22:17:45.339Z,95.15
2022-08-30T22:20:32.287Z,98.00
2022-08-30T22:23:19.615Z,96.50
2022-08-30T22:26:08.563Z,95.38
2022-08-30T22:28:55.728Z,92.15
2022-08-30T22:31:42.810Z,89.39
2022-08-30T22:34:31.529Z,89.05
2022-08-30T22:37:18.557Z,94.73
2022-08-30T22:40:05.981Z,100.00
2022-08-30T22:42:52.979Z,100.00
2022-08-30T22:45:40.163Z,100.00
2022-08-30T22:48:27.161Z,100.00
2022-08-30T22:51:15.394Z,100.00
2022-08-30T22:54:03.304Z,100.00
2022-08-30T22:56:50.279Z,100.00
2022-08-30T22:59:37.243Z,100.00
2022-08-30T23:02:24.973Z,100.00
2022-08-30T23:05:13.763Z,94.13
2022-08-30T23:08:00.690Z,89.18
2022-08-30T23:10:47.670Z,86.24
2022-08-30T23:13:34.705Z,89.06
2022-08-30T23:16:22.422Z,90.13
2022-08-30T23:19:09.447Z,90.65
2022-08-30T23:21:56.356Z,91.77
2022-08-30T23:25:01.789Z,92.66
2022-08-30T23:28:07.782Z,92.26
2022-08-30T23:31:13.187Z,91.96
2022-08-30T23:34:18.625Z,91.45
2022-08-30T23:37:24.132Z,92.27
2022-08-30T23:40:30.751Z,93.26
2022-08-30T23:43:36.432Z,92.45
2022-08-30T23:46:42.025Z,92.84
2022-08-30T23:49:47.381Z,92.15
2022-08-30T23:52:53.061Z,94.66
2022-08-30T23:55:59.004Z,92.36
2022-08-30T23:59:04.565Z,97.30
